Time;durP1;ratioP1;P1;durP2;ratioP2;P2;SDS_P1;SDS_P2;PMS_P1;PMS_P2;Temp;Humidity;BMP_temperature;BMP_pressure;BME280_temperature;BME280_humidity;BME280_pressure;Samples;Min_cycle;Max_cycle;Signal;HPM_P1;HPM_P2
2022/10/28 00:00:50;;;;;;;6.90;3.50;;;16.40;99.90;;;;;;4990948;28;20222;-61
2022/10/28 00:03:17;;;;;;;9.32;4.85;;;16.30;99.90;;;;;;4988025;28;20187;-62
2022/10/28 00:05:42;;;;;;;4.20;3.80;;;16.20;99.90;;;;;;4992894;28;20204;-61
2022/10/28 00:08:08;;;;;;;4.60;3.53;;;16.10;99.90;;;;;;4992060;28;20197;-61
2022/10/28 00:10:34;;;;;;;4.90;3.97;;;16.40;99.90;;;;;;4993934;28;20275;-61
2022/10/28 00:13:00;;;;;;;7.70;3.90;;;16.30;99.90;;;;;;5001353;28;20442;-61
2022/10/28 00:15:26;;;;;;;4.37;3.23;;;16.10;99.90;;;;;;4989491;28;20470;-61
2022/10/28 00:17:52;;;;;;;4.07;3.67;;;16.30;99.90;;;;;;4993634;28;20219;-61
2022/10/28 00:20:17;;;;;;;8.00;4.35;;;16.30;99.90;;;;;;4992703;28;20438;-61
2022/10/28 00:22:43;;;;;;;5.87;4.27;;;16.10;99.90;;;;;;4974920;28;20189;-60
2022/10/28 00:25:09;;;;;;;4.73;3.80;;;16.20;99.90;;;;;;4995189;28;20286;-61
2022/10/28 00:27:35;;;;;;;5.60;3.90;;;16.20;99.90;;;;;;4996529;28;20238;-61
2022/10/28 00:30:01;;;;;;;6.57;3.70;;;16.10;99.90;;;;;;4999845;28;20588;-61
2022/10/28 00:32:30;;;;;;;8.00;3.60;;;16.00;99.90;;;;;;4983417;28;20191;-61
2022/10/28 00:34:56;;;;;;;4.25;3.72;;;16.00;99.90;;;;;;4997025;28;20874;-61
2022/10/28 00:37:22;;;;;;;7.35;3.90;;;16.00;99.90;;;;;;4996083;28;20211;-61
2022/10/28 00:39:47;;;;;;;10.70;3.53;;;16.10;99.90;;;;;;5003795;28;20321;-61
2022/10/28 00:42:19;;;;;;;6.53;3.90;;;15.90;99.90;;;;;;4998760;28;20187;-59
2022/10/28 00:44:55;;;;;;;6.70;4.30;;;16.00;99.90;;;;;;4989666;28;20219;-61
2022/10/28 00:47:39;;;;;;;5.20;3.85;;;16.10;99.90;;;;;;4994671;28;20183;-61
2022/10/28 00:50:36;;;;;;;8.00;4.45;;;16.00;99.90;;;;;;4988714;28;20198;-62
2022/10/28 00:53:06;;;;;;;6.40;3.90;;;15.90;99.90;;;;;;4951642;28;20195;-59
2022/10/28 00:55:33;;;;;;;6.88;3.65;;;16.20;99.90;;;;;;4997406;28;20816;-60
2022/10/28 00:58:01;;;;;;;6.90;4.45;;;16.00;99.90;;;;;;4995167;28;20242;-61
2022/10/28 01:00:27;;;;;;;10.32;4.50;;;16.00;99.90;;;;;;4997187;28;20671;-59
2022/10/28 01:02:53;;;;;;;4.53;3.70;;;16.10;99.90;;;;;;4987314;28;20188;-59
2022/10/28 01:05:26;;;;;;;9.32;4.45;;;16.10;99.90;;;;;;4995700;28;20199;-59
2022/10/28 01:07:56;;;;;;;6.03;3.97;;;16.10;99.90;;;;;;4990206;28;20215;-60
2022/10/28 01:10:27;;;;;;;4.50;3.40;;;16.10;99.90;;;;;;4998521;28;20183;-59
2022/10/28 01:12:58;;;;;;;5.72;4.22;;;16.10;99.90;;;;;;5004147;28;20388;-60
2022/10/28 01:15:38;;;;;;;6.18;4.32;;;15.80;99.90;;;;;;5005310;28;20610;-61
2022/10/28 01:18:24;;;;;;;7.70;4.28;;;16.20;99.90;;;;;;4981677;28;20203;-61
2022/10/28 01:21:14;;;;;;;7.32;5.00;;;16.00;99.90;;;;;;5005251;28;20187;-62
2022/10/28 01:24:10;;;;;;;7.10;4.18;;;16.00;99.90;;;;;;4997618;28;20207;-61
2022/10/28 01:26:42;;;;;;;5.63;4.75;;;16.10;99.90;;;;;;4989523;28;20186;-61
2022/10/28 01:29:17;;;;;;;6.95;4.68;;;16.00;99.90;;;;;;4996311;28;20199;-61
2022/10/28 01:32:17;;;;;;;5.45;4.28;;;16.00;99.90;;;;;;4993491;28;20194;-61
2022/10/28 01:35:17;;;;;;;5.50;3.95;;;16.20;99.90;;;;;;4985546;28;20302;-61
2022/10/28 01:38:00;;;;;;;5.90;4.45;;;15.80;99.90;;;;;;4996808;28;20294;-61
2022/10/28 01:40:34;;;;;;;4.43;3.53;;;15.80;99.90;;;;;;4995358;28;20175;-61
2022/10/28 01:43:15;;;;;;;5.32;4.60;;;15.70;99.90;;;;;;4997543;28;20183;-61
2022/10/28 01:45:53;;;;;;;4.47;3.83;;;15.70;99.90;;;;;;4996825;28;20681;-61
2022/10/28 01:48:22;;;;;;;6.05;3.53;;;15.90;99.90;;;;;;4988568;28;20194;-61
2022/10/28 01:50:58;;;;;;;5.97;4.13;;;15.60;99.90;;;;;;4981956;28;20245;-61
2022/10/28 01:53:32;;;;;;;6.07;4.10;;;15.70;99.90;;;;;;4987542;28;20195;-61
2022/10/28 01:56:03;;;;;;;4.93;3.90;;;15.70;99.90;;;;;;4993502;28;20213;-62
2022/10/28 01:58:30;;;;;;;7.80;4.60;;;15.50;99.90;;;;;;4988333;28;20632;-61
2022/10/28 02:00:59;;;;;;;6.85;4.13;;;15.70;99.90;;;;;;4996706;28;20202;-61
2022/10/28 02:03:26;;;;;;;5.25;4.10;;;15.80;99.90;;;;;;4972295;28;20188;-61
2022/10/28 02:05:57;;;;;;;5.43;3.90;;;15.70;99.90;;;;;;4997188;28;20207;-61
2022/10/28 02:08:54;;;;;;;7.80;4.43;;;15.50;99.90;;;;;;4989282;28;20720;-61
2022/10/28 02:11:42;;;;;;;5.15;3.95;;;15.70;99.90;;;;;;4994288;28;20196;-61
2022/10/28 02:14:16;;;;;;;4.57;3.90;;;15.70;99.90;;;;;;4989185;28;20271;-61
2022/10/28 02:16:50;;;;;;;5.95;4.57;;;15.60;99.90;;;;;;4994651;28;20215;-61
2022/10/28 02:19:38;;;;;;;6.10;4.40;;;15.50;99.90;;;;;;4988485;28;20559;-61
2022/10/28 02:22:17;;;;;;;8.68;4.35;;;15.50;99.90;;;;;;4987743;28;20187;-61
2022/10/28 02:25:02;;;;;;;7.25;4.10;;;15.40;99.90;;;;;;4987622;28;20203;-61
2022/10/28 02:27:37;;;;;;;8.95;4.55;;;15.60;99.90;;;;;;4995531;28;20545;-61
2022/10/28 02:30:14;;;;;;;7.70;4.45;;;15.30;99.90;;;;;;4994956;28;20185;-61
2022/10/28 02:32:44;;;;;;;6.53;4.43;;;15.10;99.90;;;;;;4989590;28;20656;-61
2022/10/28 02:35:16;;;;;;;5.22;4.80;;;15.20;99.90;;;;;;4999816;28;20230;-61
2022/10/28 02:37:45;;;;;;;7.90;4.00;;;15.30;99.90;;;;;;4988280;28;20274;-61
2022/10/28 02:40:20;;;;;;;6.55;4.10;;;15.00;99.90;;;;;;5001278;28;20191;-62
2022/10/28 02:42:52;;;;;;;7.30;4.50;;;15.10;99.90;;;;;;4982242;28;20184;-61
2022/10/28 02:45:21;;;;;;;9.40;5.13;;;15.00;99.90;;;;;;4994990;28;20259;-61
2022/10/28 02:47:53;;;;;;;8.27;4.95;;;15.20;99.90;;;;;;4997050;28;20250;-61
2022/10/28 02:50:23;;;;;;;6.72;4.18;;;15.20;99.90;;;;;;4999502;28;20265;-61
2022/10/28 02:52:52;;;;;;;5.57;4.50;;;15.10;99.90;;;;;;4995440;28;20210;-61
2022/10/28 02:55:21;;;;;;;6.85;4.40;;;15.30;99.90;;;;;;4993910;28;20203;-61
2022/10/28 02:57:48;;;;;;;5.15;3.85;;;15.30;99.90;;;;;;4997502;28;20219;-61
2022/10/28 03:00:19;;;;;;;4.50;3.80;;;15.20;99.90;;;;;;4982466;28;20205;-61
2022/10/28 03:02:45;;;;;;;4.43;4.03;;;15.40;99.90;;;;;;4997133;28;20190;-61
2022/10/28 03:05:11;;;;;;;4.63;4.20;;;15.10;99.90;;;;;;5005779;28;20203;-61
2022/10/28 03:07:37;;;;;;;6.50;4.50;;;15.20;99.90;;;;;;4993295;28;20196;-61
2022/10/28 03:10:03;;;;;;;5.27;4.13;;;15.20;99.90;;;;;;5005477;28;20572;-61
2022/10/28 03:12:28;;;;;;;5.68;4.47;;;15.10;99.90;;;;;;5000522;28;20183;-61
2022/10/28 03:14:54;;;;;;;7.80;4.57;;;15.10;99.90;;;;;;5001986;28;20203;-62
2022/10/28 03:17:20;;;;;;;10.50;4.83;;;15.30;99.90;;;;;;4995651;28;20263;-61
2022/10/28 03:19:45;;;;;;;8.90;5.10;;;15.10;99.90;;;;;;5001217;28;20187;-62
2022/10/28 03:22:11;;;;;;;6.67;4.50;;;15.00;99.90;;;;;;5001338;28;20175;-61
2022/10/28 03:24:36;;;;;;;5.27;4.30;;;14.90;99.90;;;;;;4977120;28;20263;-61
2022/10/28 03:27:02;;;;;;;6.83;4.17;;;15.20;99.90;;;;;;5003268;28;20991;-61
2022/10/28 03:29:27;;;;;;;8.03;4.43;;;14.50;99.90;;;;;;4992436;28;20202;-61
2022/10/28 03:31:53;;;;;;;9.73;5.07;;;15.50;99.90;;;;;;5003013;28;20190;-61
2022/10/28 03:34:19;;;;;;;5.10;4.63;;;15.20;99.90;;;;;;4999467;28;20234;-59
2022/10/28 03:36:44;;;;;;;8.80;4.80;;;15.20;99.90;;;;;;4994753;28;20214;-60
2022/10/28 03:39:10;;;;;;;5.77;4.40;;;15.30;99.90;;;;;;4998827;28;20191;-60
2022/10/28 03:41:35;;;;;;;7.50;5.10;;;15.30;99.90;;;;;;5003247;28;20211;-60
2022/10/28 03:44:01;;;;;;;9.03;4.57;;;15.60;99.90;;;;;;4991822;28;20194;-61
2022/10/28 03:46:26;;;;;;;12.40;4.90;;;15.40;99.90;;;;;;4993454;28;20207;-60
2022/10/28 03:48:52;;;;;;;6.93;4.80;;;15.40;99.90;;;;;;4999066;28;20192;-60
2022/10/28 03:51:18;;;;;;;5.93;5.13;;;15.50;99.90;;;;;;5004661;28;20195;-60
2022/10/28 03:53:43;;;;;;;6.50;5.27;;;15.40;99.90;;;;;;4995139;28;20531;-61
2022/10/28 03:56:10;;;;;;;5.97;4.83;;;15.40;99.90;;;;;;4995048;28;20901;-60
2022/10/28 03:58:36;;;;;;;6.25;5.03;;;15.70;99.90;;;;;;4998319;28;20223;-60
2022/10/28 04:01:02;;;;;;;8.80;4.97;;;15.70;99.90;;;;;;4996215;28;20532;-60
2022/10/28 04:03:27;;;;;;;7.00;5.10;;;15.50;99.90;;;;;;4997798;28;20893;-61
2022/10/28 04:05:53;;;;;;;8.03;5.27;;;15.60;99.90;;;;;;4994290;28;20451;-61
2022/10/28 04:08:19;;;;;;;6.10;4.83;;;15.40;99.90;;;;;;4987771;28;20550;-61
2022/10/28 04:10:45;;;;;;;7.03;4.90;;;15.40;99.90;;;;;;5004331;28;20656;-60
2022/10/28 04:13:11;;;;;;;7.63;4.70;;;15.40;99.90;;;;;;4996765;28;20202;-61
2022/10/28 04:15:37;;;;;;;6.60;4.40;;;15.40;99.90;;;;;;4989020;28;20470;-61
2022/10/28 04:18:03;;;;;;;6.47;4.57;;;15.40;99.90;;;;;;4997680;28;20469;-60
2022/10/28 04:20:29;;;;;;;10.88;5.25;;;15.40;99.90;;;;;;4987667;28;20198;-61
2022/10/28 04:22:55;;;;;;;6.20;4.93;;;15.40;99.90;;;;;;4993826;28;20184;-61
2022/10/28 04:25:21;;;;;;;5.70;5.10;;;15.60;99.90;;;;;;4998516;28;20203;-61
2022/10/28 04:27:48;;;;;;;8.13;4.90;;;15.50;99.90;;;;;;4996116;28;20525;-60
2022/10/28 04:30:13;;;;;;;7.82;4.80;;;15.40;99.90;;;;;;4989890;28;20394;-60
2022/10/28 04:32:40;;;;;;;9.57;5.40;;;15.50;99.90;;;;;;4994386;28;20304;-61
2022/10/28 04:35:06;;;;;;;6.00;4.72;;;15.40;99.90;;;;;;5001045;28;20747;-61
2022/10/28 04:37:32;;;;;;;8.25;5.25;;;15.60;99.90;;;;;;4993614;28;20215;-61
2022/10/28 04:39:57;;;;;;;8.67;5.53;;;15.30;99.90;;;;;;4996842;28;20544;-61
2022/10/28 04:42:23;;;;;;;10.80;5.17;;;15.80;99.90;;;;;;4983217;28;20196;-61
2022/10/28 04:44:48;;;;;;;9.67;4.93;;;15.70;99.90;;;;;;4994752;28;20679;-61
2022/10/28 04:47:15;;;;;;;5.97;4.63;;;15.90;99.90;;;;;;4992053;28;20191;-61
2022/10/28 04:49:40;;;;;;;9.18;6.45;;;15.70;99.90;;;;;;4988595;28;20262;-61
2022/10/28 04:52:06;;;;;;;11.90;6.10;;;15.50;99.90;;;;;;4989057;28;20364;-60
2022/10/28 04:54:31;;;;;;;8.43;5.40;;;15.70;99.90;;;;;;4982992;28;20266;-61
2022/10/28 04:56:57;;;;;;;9.47;6.83;;;15.70;99.90;;;;;;4988083;28;20232;-61
2022/10/28 04:59:22;;;;;;;9.63;5.97;;;15.80;99.90;;;;;;4991918;28;20183;-61
2022/10/28 05:01:48;;;;;;;11.17;6.13;;;15.70;99.90;;;;;;4996337;28;20179;-60
2022/10/28 05:04:13;;;;;;;8.53;5.20;;;15.60;99.90;;;;;;4989532;28;20211;-62
2022/10/28 05:06:39;;;;;;;10.73;6.17;;;15.80;99.90;;;;;;4997932;28;20661;-60
2022/10/28 05:09:05;;;;;;;6.77;5.40;;;15.80;99.90;;;;;;4997278;28;20265;-60
2022/10/28 05:11:30;;;;;;;8.57;5.50;;;15.90;99.90;;;;;;4999759;28;20574;-61
2022/10/28 05:13:56;;;;;;;6.60;4.90;;;16.10;99.90;;;;;;4998021;28;20183;-60
2022/10/28 05:16:21;;;;;;;9.70;6.07;;;16.10;99.90;;;;;;5001405;28;20186;-61
2022/10/28 05:18:47;;;;;;;7.87;5.43;;;15.90;99.90;;;;;;4987803;28;20211;-61
2022/10/28 05:21:13;;;;;;;8.63;4.80;;;15.70;99.90;;;;;;4996496;28;20549;-61
2022/10/28 05:23:38;;;;;;;9.50;5.30;;;15.70;99.90;;;;;;4986914;28;20191;-62
2022/10/28 05:26:04;;;;;;;10.20;5.77;;;15.90;99.90;;;;;;4992358;28;20234;-60
2022/10/28 05:28:30;;;;;;;8.40;5.57;;;16.30;99.90;;;;;;4990308;28;20184;-60
2022/10/28 05:30:55;;;;;;;7.93;5.90;;;16.00;99.90;;;;;;4990117;28;20192;-60
2022/10/28 05:33:21;;;;;;;6.53;5.40;;;15.90;99.90;;;;;;4988619;28;20179;-62
2022/10/28 05:35:47;;;;;;;7.30;6.10;;;15.80;99.90;;;;;;4986420;28;20678;-61
2022/10/28 05:38:13;;;;;;;9.10;6.33;;;15.70;99.90;;;;;;4982559;28;20990;-61
2022/10/28 05:40:38;;;;;;;9.40;5.83;;;15.80;99.90;;;;;;4978468;28;20180;-59
2022/10/28 05:43:04;;;;;;;10.53;5.90;;;15.80;99.90;;;;;;4989622;28;20184;-60
2022/10/28 05:45:30;;;;;;;5.87;5.27;;;15.90;99.90;;;;;;4986089;28;20234;-66
2022/10/28 05:47:57;;;;;;;6.63;5.50;;;15.80;99.90;;;;;;4993140;28;20786;-68
2022/10/28 05:50:22;;;;;;;7.57;5.75;;;15.60;99.90;;;;;;4993929;28;20240;-68
2022/10/28 05:52:53;;;;;;;14.93;7.57;;;15.60;99.90;;;;;;4988855;28;20187;-70
2022/10/28 05:55:20;;;;;;;9.43;5.03;;;15.60;99.90;;;;;;4983007;28;21328;-69
2022/10/28 05:57:47;;;;;;;11.32;4.55;;;15.30;99.90;;;;;;5004054;28;20206;-69
2022/10/28 06:00:14;;;;;;;6.18;5.55;;;15.50;99.90;;;;;;4969125;28;20610;-71
2022/10/28 06:02:40;;;;;;;9.05;4.57;;;15.70;99.90;;;;;;4984772;28;20180;-73
2022/10/28 06:05:07;;;;;;;10.18;4.40;;;15.70;99.90;;;;;;4977432;28;20207;-73
2022/10/28 06:07:33;;;;;;;9.98;4.60;;;15.70;99.90;;;;;;4983257;28;20279;-66
2022/10/28 06:09:59;;;;;;;5.60;4.40;;;15.70;99.90;;;;;;4986410;28;20180;-63
2022/10/28 06:12:25;;;;;;;10.77;4.43;;;15.80;99.90;;;;;;4987051;28;20203;-64
2022/10/28 06:14:51;;;;;;;6.47;4.23;;;15.80;99.90;;;;;;4986360;28;20865;-62
2022/10/28 06:17:16;;;;;;;5.37;4.40;;;15.90;99.90;;;;;;4987233;28;20474;-65
2022/10/28 06:19:42;;;;;;;11.57;3.60;;;15.80;99.90;;;;;;4991694;28;20188;-63
2022/10/28 06:22:08;;;;;;;9.27;4.50;;;15.90;99.90;;;;;;4993577;28;20199;-64
2022/10/28 06:24:33;;;;;;;8.17;4.00;;;16.10;99.90;;;;;;4987444;28;20297;-69
2022/10/28 06:26:59;;;;;;;4.70;3.73;;;15.90;99.90;;;;;;4994077;28;20195;-62
2022/10/28 06:29:24;;;;;;;7.30;4.57;;;16.10;99.90;;;;;;4991407;28;20202;-62
2022/10/28 06:31:50;;;;;;;7.93;4.13;;;16.10;99.90;;;;;;4985586;28;20186;-62
2022/10/28 06:34:16;;;;;;;7.57;4.37;;;15.80;99.90;;;;;;4993493;28;20214;-62
2022/10/28 06:36:41;;;;;;;9.30;5.77;;;16.20;99.90;;;;;;4990114;28;20187;-62
2022/10/28 06:39:07;;;;;;;6.67;4.47;;;16.20;99.90;;;;;;4988414;28;20823;-62
2022/10/28 06:41:33;;;;;;;8.50;4.00;;;16.30;99.90;;;;;;4990797;28;20197;-62
2022/10/28 06:43:59;;;;;;;6.88;4.70;;;16.10;99.90;;;;;;4990528;28;20184;-61
2022/10/28 06:46:25;;;;;;;9.07;4.50;;;16.20;99.90;;;;;;4986489;28;20253;-62
2022/10/28 06:48:53;;;;;;;6.27;4.83;;;16.40;99.90;;;;;;4973783;28;20184;-62
2022/10/28 06:51:18;;;;;;;7.30;4.28;;;16.70;99.90;;;;;;4986233;28;20438;-57
2022/10/28 06:53:49;;;;;;;7.60;4.77;;;16.50;99.90;;;;;;4987632;28;20191;-57
2022/10/28 06:56:14;;;;;;;6.82;4.15;;;16.50;99.90;;;;;;4992331;28;20191;-58
2022/10/28 06:58:40;;;;;;;5.30;4.00;;;16.70;99.90;;;;;;4992376;28;20269;-57
2022/10/28 07:01:06;;;;;;;7.27;4.53;;;16.60;99.90;;;;;;4989497;28;21242;-57
2022/10/28 07:03:31;;;;;;;8.30;4.13;;;16.80;99.90;;;;;;4992425;28;20258;-68
2022/10/28 07:05:58;;;;;;;5.17;4.47;;;16.50;99.90;;;;;;4990019;28;20204;-69
2022/10/28 07:08:23;;;;;;;5.25;4.22;;;16.70;99.90;;;;;;4985516;28;20196;-74
2022/10/28 07:10:57;;;;;;;14.67;5.43;;;16.80;99.90;;;;;;4976087;28;20786;-77
2022/10/28 07:13:23;;;;;;;9.65;5.95;;;16.90;99.90;;;;;;4974375;28;20195;-70
2022/10/28 07:15:53;;;;;;;15.52;8.45;;;16.90;99.90;;;;;;4972879;28;20211;-74
2022/10/28 07:18:19;;;;;;;8.20;6.47;;;17.00;99.90;;;;;;4970602;28;20278;-74
2022/10/28 07:20:45;;;;;;;11.35;6.30;;;17.20;99.90;;;;;;4973377;28;20193;-75
2022/10/28 07:23:11;;;;;;;5.53;4.15;;;17.00;99.90;;;;;;4986817;28;20589;-70
2022/10/28 07:25:36;;;;;;;4.37;3.67;;;16.90;99.90;;;;;;4972377;28;20254;-72
2022/10/28 07:28:02;;;;;;;7.97;3.10;;;17.20;99.90;;;;;;4989820;28;20195;-71
2022/10/28 07:30:28;;;;;;;10.30;3.60;;;17.50;99.90;;;;;;4988258;28;20198;-71
2022/10/28 07:32:54;;;;;;;8.43;3.60;;;17.40;99.90;;;;;;4988254;28;20263;-72
2022/10/28 07:35:20;;;;;;;6.33;4.00;;;17.80;99.90;;;;;;4990224;28;20469;-70
2022/10/28 07:37:46;;;;;;;6.80;4.40;;;17.40;99.90;;;;;;4988463;28;20502;-63
2022/10/28 07:40:11;;;;;;;4.47;3.17;;;17.90;99.90;;;;;;4991304;28;20442;-71
2022/10/28 07:42:37;;;;;;;7.03;3.90;;;17.80;99.90;;;;;;4973269;28;20601;-64
2022/10/28 07:45:03;;;;;;;5.30;4.03;;;18.10;99.90;;;;;;4965805;28;20249;-63
2022/10/28 07:47:29;;;;;;;8.18;4.40;;;17.90;99.90;;;;;;4986733;28;20219;-63
2022/10/28 07:49:55;;;;;;;6.23;4.23;;;18.10;99.90;;;;;;4983763;28;20223;-63
2022/10/28 07:52:21;;;;;;;7.07;4.80;;;18.20;99.90;;;;;;4995861;28;20191;-63
2022/10/28 07:54:46;;;;;;;7.83;5.20;;;18.30;99.90;;;;;;4989292;28;20215;-63
2022/10/28 07:57:12;;;;;;;7.23;4.50;;;18.10;99.90;;;;;;4993128;28;20461;-63
2022/10/28 07:59:37;;;;;;;8.70;5.13;;;18.00;99.90;;;;;;4997952;28;20195;-63
2022/10/28 08:02:03;;;;;;;10.93;6.20;;;18.20;99.90;;;;;;4985902;28;20218;-63
2022/10/28 08:04:30;;;;;;;10.33;5.73;;;18.20;99.90;;;;;;5002264;28;20207;-64
2022/10/28 08:06:56;;;;;;;7.80;5.13;;;18.30;99.90;;;;;;5002156;28;20254;-63
2022/10/28 08:09:21;;;;;;;11.60;6.53;;;18.40;99.90;;;;;;4994709;28;20229;-63
2022/10/28 08:11:47;;;;;;;12.20;5.43;;;18.50;99.90;;;;;;5001464;28;20203;-63
2022/10/28 08:14:13;;;;;;;10.40;5.53;;;18.50;99.90;;;;;;5000895;28;20217;-65
2022/10/28 08:16:38;;;;;;;8.03;4.80;;;18.60;99.90;;;;;;5003648;28;20194;-65
2022/10/28 08:19:04;;;;;;;9.00;5.27;;;18.70;99.90;;;;;;4991043;28;20745;-66
2022/10/28 08:21:30;;;;;;;9.13;5.90;;;18.70;99.90;;;;;;4967335;28;20263;-65
2022/10/28 08:23:55;;;;;;;8.27;5.73;;;18.80;99.90;;;;;;4989908;28;21587;-71
2022/10/28 08:26:22;;;;;;;10.03;7.90;;;18.80;99.90;;;;;;4995117;28;20203;-72
2022/10/28 08:28:47;;;;;;;12.70;5.65;;;18.90;99.90;;;;;;4993866;28;20728;-72
2022/10/28 08:31:13;;;;;;;9.17;5.70;;;18.80;99.90;;;;;;4989772;28;20270;-72
2022/10/28 08:33:43;;;;;;;8.30;5.10;;;18.90;99.90;;;;;;4987564;28;20200;-73
2022/10/28 08:36:14;;;;;;;7.65;4.60;;;18.90;99.90;;;;;;4990682;28;20192;-68
2022/10/28 08:38:42;;;;;;;9.82;5.20;;;19.00;99.90;;;;;;4983491;28;20623;-71
2022/10/28 08:41:35;;;;;;;10.43;6.82;;;19.00;99.90;;;;;;4988629;28;20235;-66
2022/10/28 08:44:28;;;;;;;12.10;5.07;;;19.10;99.90;;;;;;4988588;28;20211;-74
2022/10/28 08:47:08;;;;;;;10.35;5.28;;;19.10;99.90;;;;;;4982357;28;20220;-77
2022/10/28 08:49:37;;;;;;;12.70;4.80;;;19.20;99.90;;;;;;4983290;28;20230;-74
2022/10/28 08:52:38;;;;;;;8.15;4.82;;;19.20;99.90;;;;;;4988487;28;20184;-62
2022/10/28 08:55:33;;;;;;;9.48;4.57;;;19.40;99.90;;;;;;4983675;28;20237;-65
2022/10/28 08:58:09;;;;;;;6.47;4.35;;;19.40;99.90;;;;;;4985754;28;20211;-68
2022/10/28 09:00:36;;;;;;;12.38;5.28;;;19.50;99.90;;;;;;4985605;28;20710;-67
2022/10/28 09:03:16;;;;;;;5.95;4.50;;;19.60;99.90;;;;;;4983970;28;20219;-67
2022/10/28 09:05:46;;;;;;;9.68;5.18;;;19.40;99.90;;;;;;4987012;28;20203;-67
2022/10/28 09:08:20;;;;;;;6.97;4.60;;;19.90;99.90;;;;;;4984445;28;20184;-66
2022/10/28 09:10:56;;;;;;;9.13;4.90;;;19.90;99.90;;;;;;4992880;28;20672;-66
2022/10/28 09:13:40;;;;;;;8.05;4.88;;;20.00;99.90;;;;;;4984603;28;20195;-66
2022/10/28 09:16:33;;;;;;;8.27;5.10;;;20.10;99.90;;;;;;4974597;28;20195;-65
2022/10/28 09:19:13;;;;;;;13.73;7.55;;;20.10;99.90;;;;;;4982426;28;20649;-65
2022/10/28 09:21:46;;;;;;;13.55;6.15;;;20.00;99.90;;;;;;4982180;28;20184;-65
2022/10/28 09:24:22;;;;;;;13.32;7.30;;;20.00;99.90;;;;;;4980886;28;20231;-65
2022/10/28 09:27:07;;;;;;;11.82;7.25;;;19.80;99.90;;;;;;4988668;28;20944;-63
2022/10/28 09:30:07;;;;;;;11.80;6.63;;;19.70;99.90;;;;;;4969431;28;20191;-67
2022/10/28 09:32:57;;;;;;;11.43;5.90;;;19.60;99.90;;;;;;4982687;28;20195;-70
2022/10/28 09:35:27;;;;;;;8.88;5.90;;;19.70;99.90;;;;;;4979800;28;20270;-68
2022/10/28 09:38:08;;;;;;;8.50;5.28;;;19.70;99.90;;;;;;4988615;28;20218;-71
2022/10/28 09:40:39;;;;;;;10.80;7.60;;;19.60;99.90;;;;;;4987353;28;20205;-67
2022/10/28 09:43:13;;;;;;;11.38;6.50;;;19.50;99.90;;;;;;4979810;28;20191;-67
2022/10/28 09:45:43;;;;;;;10.82;6.40;;;19.50;99.90;;;;;;4984633;28;20203;-68
2022/10/28 09:48:21;;;;;;;13.23;5.55;;;19.80;99.90;;;;;;4984765;28;20250;-68
2022/10/28 09:50:50;;;;;;;7.88;3.90;;;19.80;99.90;;;;;;4992864;28;20195;-66
2022/10/28 09:53:40;;;;;;;5.38;2.67;;;19.90;99.90;;;;;;4982200;28;20700;-68
2022/10/28 09:56:07;;;;;;;6.97;3.53;;;20.30;99.30;;;;;;4994944;28;20219;-69
2022/10/28 09:58:34;;;;;;;5.10;3.95;;;20.60;98.50;;;;;;4989888;28;20211;-70
2022/10/28 10:01:00;;;;;;;8.60;5.32;;;21.10;97.80;;;;;;4990339;28;20636;-70
2022/10/28 10:03:26;;;;;;;7.55;4.13;;;21.70;97.90;;;;;;4972975;28;20217;-69
2022/10/28 10:05:54;;;;;;;6.17;4.50;;;21.90;95.90;;;;;;4992031;28;20208;-77
2022/10/28 10:08:21;;;;;;;9.80;5.80;;;22.20;95.20;;;;;;4972650;28;20270;-75
2022/10/28 10:11:02;;;;;;;10.70;5.60;;;22.50;96.00;;;;;;4989090;28;20508;-70
2022/10/28 10:13:33;;;;;;;8.40;5.20;;;22.60;95.90;;;;;;4987191;28;20542;-69
2022/10/28 10:16:05;;;;;;;7.00;4.13;;;22.80;95.40;;;;;;4973601;28;20836;-74
2022/10/28 10:18:31;;;;;;;5.03;3.67;;;22.90;94.20;;;;;;4982133;28;20497;-71
2022/10/28 10:20:58;;;;;;;7.20;4.60;;;23.30;94.60;;;;;;4990360;28;20434;-67
2022/10/28 10:23:29;;;;;;;6.10;3.60;;;23.40;93.70;;;;;;4988946;28;20455;-74
2022/10/28 10:26:07;;;;;;;4.50;3.23;;;23.40;92.30;;;;;;4990598;28;20462;-70
2022/10/28 10:28:37;;;;;;;3.37;2.70;;;23.50;92.10;;;;;;4994348;28;20450;-73
2022/10/28 10:31:06;;;;;;;4.30;2.60;;;23.90;91.30;;;;;;4990852;28;20442;-73
2022/10/28 10:33:41;;;;;;;4.07;2.63;;;23.60;90.50;;;;;;4987012;28;20798;-72
2022/10/28 10:36:09;;;;;;;8.30;3.23;;;23.40;90.30;;;;;;4970990;28;20496;-71
2022/10/28 10:38:36;;;;;;;9.50;3.50;;;23.20;90.80;;;;;;4986436;28;20967;-71
2022/10/28 10:41:02;;;;;;;4.87;2.13;;;22.80;90.40;;;;;;4990316;28;21954;-70
2022/10/28 10:43:38;;;;;;;8.27;2.40;;;23.30;90.60;;;;;;4989525;28;20680;-73
2022/10/28 10:46:12;;;;;;;9.90;3.00;;;23.30;90.20;;;;;;4985058;28;20469;-68
2022/10/28 10:48:38;;;;;;;4.57;2.70;;;23.40;90.50;;;;;;4989647;28;20934;-70
2022/10/28 10:51:08;;;;;;;6.10;2.83;;;23.40;90.90;;;;;;4970493;28;20442;-72
2022/10/28 10:53:34;;;;;;;6.27;4.90;;;23.30;90.60;;;;;;4969277;28;20203;-71
2022/10/28 10:56:03;;;;;;;6.47;4.17;;;23.40;91.50;;;;;;4990330;28;20982;-71
2022/10/28 10:58:34;;;;;;;7.90;4.43;;;23.30;92.00;;;;;;4974632;28;20478;-72
2022/10/28 11:01:03;;;;;;;8.77;5.80;;;23.10;92.20;;;;;;4990260;28;20809;-71
2022/10/28 11:03:45;;;;;;;11.97;6.80;;;23.00;93.00;;;;;;4968035;28;20503;-70
2022/10/28 11:06:20;;;;;;;9.33;5.00;;;23.00;93.30;;;;;;4986384;28;20448;-68
2022/10/28 11:08:45;;;;;;;7.03;5.60;;;23.00;94.00;;;;;;4988075;28;20951;-69
2022/10/28 11:11:21;;;;;;;9.50;5.20;;;22.90;94.40;;;;;;4989530;28;20443;-69
2022/10/28 11:14:00;;;;;;;6.47;5.33;;;22.90;94.00;;;;;;4989912;28;20261;-62
2022/10/28 11:16:26;;;;;;;12.67;6.20;;;23.00;94.10;;;;;;4982421;28;20849;-63
2022/10/28 11:18:52;;;;;;;9.60;6.20;;;23.10;94.30;;;;;;4988471;28;20485;-63
2022/10/28 11:21:55;;;;;;;14.03;9.70;;;22.90;94.10;;;;;;4989420;28;20265;-63
2022/10/28 11:24:24;;;;;;;9.43;5.33;;;23.10;94.30;;;;;;4982362;28;20461;-61
2022/10/28 11:27:10;;;;;;;11.63;6.03;;;23.00;93.70;;;;;;4988972;28;20956;-62
2022/10/28 11:29:36;;;;;;;8.50;5.47;;;23.00;94.40;;;;;;4986695;28;20437;-61
2022/10/28 11:32:17;;;;;;;10.73;5.50;;;23.00;94.70;;;;;;4987288;28;20518;-62
2022/10/28 11:35:17;;;;;;;10.07;6.60;;;22.90;94.70;;;;;;4973343;28;20454;-62
2022/10/28 11:38:02;;;;;;;12.00;6.77;;;22.80;93.80;;;;;;4980460;28;20509;-62
2022/10/28 11:40:52;;;;;;;9.10;5.83;;;22.80;94.60;;;;;;4980458;28;20840;-62
2022/10/28 11:43:21;;;;;;;13.77;6.07;;;22.80;94.80;;;;;;4985688;28;20438;-62
2022/10/28 11:45:57;;;;;;;13.10;6.10;;;22.70;95.20;;;;;;4989785;28;20446;-62
2022/10/28 11:48:45;;;;;;;9.35;7.20;;;22.60;95.50;;;;;;4990600;28;20514;-62
2022/10/28 11:51:52;;;;;;;10.27;7.33;;;22.60;95.40;;;;;;4971926;28;20184;-62
2022/10/28 11:54:36;;;;;;;9.17;5.87;;;22.50;96.20;;;;;;4984821;28;20473;-63
2022/10/28 11:57:09;;;;;;;8.77;5.20;;;22.40;95.90;;;;;;4988664;28;20446;-62
2022/10/28 11:59:35;;;;;;;7.87;4.70;;;22.30;94.90;;;;;;4990272;28;20493;-62
2022/10/28 12:02:18;;;;;;;12.80;6.20;;;22.40;94.90;;;;;;4987342;28;20434;-62
2022/10/28 12:05:03;;;;;;;7.20;3.70;;;22.50;95.00;;;;;;4983921;28;20687;-62
2022/10/28 12:08:00;;;;;;;6.70;3.23;;;22.60;94.60;;;;;;4988217;28;20443;-62
2022/10/28 12:10:29;;;;;;;11.00;4.20;;;22.80;94.10;;;;;;4976036;28;20461;-62
2022/10/28 12:13:02;;;;;;;10.60;3.87;;;23.10;94.10;;;;;;4990294;28;21015;-60
2022/10/28 12:15:45;;;;;;;7.83;3.83;;;23.30;94.10;;;;;;4983546;28;20494;-63
2022/10/28 12:18:29;;;;;;;5.60;3.80;;;23.50;93.90;;;;;;4986098;28;20481;-62
2022/10/28 12:21:16;;;;;;;8.20;3.60;;;23.70;93.70;;;;;;4987104;28;20484;-62
2022/10/28 12:23:43;;;;;;;6.57;4.00;;;23.80;92.40;;;;;;4988829;28;20438;-61
2022/10/28 12:26:14;;;;;;;8.10;6.60;;;23.80;92.10;;;;;;4972613;28;20427;-61
2022/10/28 12:28:44;;;;;;;6.50;4.30;;;24.10;92.30;;;;;;4988998;28;20448;-61
2022/10/28 12:31:17;;;;;;;8.47;4.83;;;24.30;92.00;;;;;;4987041;28;20481;-62
2022/10/28 12:33:46;;;;;;;10.43;4.93;;;24.40;91.80;;;;;;4986982;28;20534;-66
2022/10/28 12:36:30;;;;;;;5.47;4.33;;;24.50;92.20;;;;;;4988728;28;20451;-65
2022/10/28 12:39:00;;;;;;;10.13;4.80;;;24.50;92.10;;;;;;4968368;28;20574;-62
2022/10/28 12:41:31;;;;;;;6.87;4.83;;;24.40;92.20;;;;;;4988494;28;20522;-67
2022/10/28 12:44:08;;;;;;;10.80;4.50;;;24.30;92.20;;;;;;4987459;28;20490;-66
2022/10/28 12:46:56;;;;;;;7.87;4.40;;;24.20;92.40;;;;;;4980936;28;20430;-67
2022/10/28 12:50:03;;;;;;;6.83;4.10;;;24.10;92.50;;;;;;4987699;28;20541;-65
2022/10/28 12:52:29;;;;;;;6.47;4.47;;;24.00;92.60;;;;;;4980095;28;20440;-63
2022/10/28 12:55:13;;;;;;;7.33;5.90;;;24.10;93.30;;;;;;4986144;28;20512;-66
2022/10/28 12:57:48;;;;;;;9.00;7.80;;;24.00;93.60;;;;;;4988226;28;20245;-65
2022/10/28 13:00:26;;;;;;;11.23;6.47;;;24.10;94.10;;;;;;4970224;28;20441;-65
2022/10/28 13:03:10;;;;;;;9.90;5.93;;;24.10;94.00;;;;;;4989658;28;20497;-69
2022/10/28 13:05:42;;;;;;;12.90;5.60;;;24.10;94.70;;;;;;4971699;28;20893;-70